createdAt,value
2022-12-18T00:03:26.394Z,29.48
2022-12-18T00:08:28.327Z,28.75
2022-12-18T00:13:30.137Z,30.88
2022-12-18T00:18:32.155Z,32.33
2022-12-18T00:23:36.269Z,32.88
2022-12-18T00:28:40.141Z,29.83
2022-12-18T00:33:42.493Z,31.70
2022-12-18T00:38:46.052Z,27.42
2022-12-18T00:43:47.997Z,28.10
2022-12-18T00:48:49.843Z,31.25
2022-12-18T00:53:51.685Z,28.40
2022-12-18T00:58:53.531Z,29.33
2022-12-18T01:03:55.362Z,29.52
2022-12-18T01:08:57.925Z,28.95
2022-12-18T01:13:59.865Z,29.33
2022-12-18T01:19:01.698Z,30.77
2022-12-18T01:24:03.612Z,33.67
2022-12-18T01:29:05.733Z,33.40
2022-12-18T01:34:07.872Z,29.77
2022-12-18T01:39:15.226Z,28.48
2022-12-18T01:44:36.149Z,30.60
2022-12-18T01:49:37.954Z,31.98
2022-12-18T01:54:40.042Z,33.47
2022-12-18T01:59:43.991Z,30.37
2022-12-18T02:04:49.610Z,28.92
2022-12-18T02:10:00.369Z,27.98
2022-12-18T02:15:21.210Z,27.00
2022-12-18T02:20:23.080Z,26.90
2022-12-18T02:25:26.213Z,24.00
2022-12-18T02:30:30.395Z,22.60
2022-12-18T02:35:33.663Z,22.85
2022-12-18T02:40:37.918Z,24.15
2022-12-18T02:51:04.504Z,22.95
2022-12-18T02:56:15.129Z,21.63
2022-12-18T03:01:34.866Z,22.52
2022-12-18T03:06:43.197Z,21.50
2022-12-18T03:11:47.598Z,21.40
2022-12-18T03:16:50.960Z,20.98
2022-12-18T03:21:55.266Z,20.73
2022-12-18T03:27:01.606Z,23.15
2022-12-18T03:32:06.870Z,22.88
2022-12-18T03:37:08.899Z,20.77
2022-12-18T03:42:25.972Z,19.90
2022-12-18T03:47:37.022Z,18.70
2022-12-18T03:53:01.568Z,20.13
2022-12-18T03:58:05.414Z,17.37
2022-12-18T04:03:22.601Z,18.90
2022-12-18T04:08:27.669Z,19.50
2022-12-18T04:13:39.680Z,19.58
2022-12-18T04:18:46.797Z,17.92
2022-12-18T04:23:50.582Z,18.58
2022-12-18T04:28:55.832Z,18.63
2022-12-18T04:33:57.694Z,16.10
2022-12-18T04:39:00.521Z,18.17
2022-12-18T04:44:02.562Z,19.35
2022-12-18T04:49:04.365Z,19.20
2022-12-18T04:54:06.243Z,19.50
2022-12-18T04:59:08.165Z,18.60
2022-12-18T05:04:10.381Z,16.67
2022-12-18T05:09:12.613Z,16.85
2022-12-18T05:14:14.503Z,17.25
2022-12-18T05:19:16.446Z,18.67
2022-12-18T05:24:19.514Z,18.73
2022-12-18T05:29:21.498Z,15.63
2022-12-18T05:34:23.346Z,17.90
2022-12-18T05:39:25.186Z,16.77
2022-12-18T05:44:27.094Z,15.47
2022-12-18T05:49:28.937Z,17.08
2022-12-18T05:54:31.046Z,15.87
2022-12-18T05:59:33.052Z,15.77
2022-12-18T06:04:34.932Z,14.70
2022-12-18T06:09:36.783Z,14.90
2022-12-18T06:14:38.624Z,15.50
2022-12-18T06:19:40.473Z,15.67
2022-12-18T06:24:42.321Z,14.67
2022-12-18T06:29:44.159Z,15.23
2022-12-18T06:34:46.016Z,14.97
2022-12-18T06:39:47.833Z,15.07
2022-12-18T06:44:49.663Z,14.60
2022-12-18T06:49:51.531Z,15.67
2022-12-18T06:54:53.315Z,15.60
2022-12-18T06:59:55.123Z,14.23
2022-12-18T07:04:56.925Z,14.93
2022-12-18T07:09:58.738Z,13.57
2022-12-18T07:15:00.644Z,13.77
2022-12-18T07:20:02.579Z,14.07
2022-12-18T07:25:04.594Z,13.60
2022-12-18T07:30:06.733Z,11.95
2022-12-18T07:35:08.578Z,13.45
2022-12-18T07:40:10.767Z,12.53
2022-12-18T07:45:12.606Z,13.23
2022-12-18T07:50:14.529Z,12.63
2022-12-18T07:55:16.383Z,12.30
2022-12-18T08:00:18.298Z,11.43
2022-12-18T08:05:20.150Z,12.60
2022-12-18T08:10:22.330Z,11.03
2022-12-18T08:15:24.186Z,10.43
2022-12-18T08:20:25.977Z,10.50
2022-12-18T08:25:27.803Z,10.47
2022-12-18T08:30:29.666Z,10.27
2022-12-18T08:35:36.366Z,9.97
2022-12-18T08:40:39.806Z,10.23
2022-12-18T08:45:41.705Z,10.10
2022-12-18T08:50:43.522Z,8.80
2022-12-18T08:55:50.064Z,9.40
2022-12-18T09:00:52.260Z,8.90
2022-12-18T09:05:54.097Z,8.43
2022-12-18T09:10:56.422Z,9.32
2022-12-18T09:15:58.261Z,8.63
2022-12-18T09:21:00.078Z,8.00
2022-12-18T09:26:01.902Z,7.35
2022-12-18T09:31:08.639Z,7.97
2022-12-18T09:36:11.683Z,6.95
2022-12-18T09:41:32.041Z,7.65
2022-12-18T09:46:36.319Z,6.45
2022-12-18T09:51:40.483Z,6.70
2022-12-18T09:56:43.539Z,7.22
2022-12-18T10:07:07.271Z,5.88
2022-12-18T10:12:18.006Z,5.97
2022-12-18T10:17:35.144Z,5.35
2022-12-18T10:22:43.143Z,5.35
2022-12-18T10:27:45.103Z,5.63
2022-12-18T10:32:46.899Z,5.88
2022-12-18T10:38:01.835Z,5.32
2022-12-18T10:43:12.155Z,5.40
2022-12-18T10:48:21.843Z,5.15
2022-12-18T10:53:25.362Z,4.82
2022-12-18T10:58:31.622Z,5.15
2022-12-18T11:03:45.854Z,5.38
2022-12-18T11:09:12.204Z,5.38
2022-12-18T11:14:19.171Z,4.95
2022-12-18T11:19:35.371Z,5.63
2022-12-18T11:24:37.338Z,4.55
2022-12-18T11:29:44.921Z,5.47
2022-12-18T11:34:54.670Z,5.35
2022-12-18T11:40:03.868Z,5.10
2022-12-18T11:45:19.585Z,5.45
2022-12-18T11:50:40.079Z,6.10
2022-12-18T11:55:59.924Z,5.53
2022-12-18T12:01:04.494Z,5.68
2022-12-18T12:06:13.187Z,5.90
2022-12-18T12:11:14.974Z,6.28
2022-12-18T12:16:18.765Z,6.07
2022-12-18T12:21:20.567Z,5.75
2022-12-18T12:26:34.248Z,5.72
2022-12-18T12:36:37.780Z,5.55
2022-12-18T12:41:40.853Z,4.50
2022-12-18T12:46:43.299Z,6.38
2022-12-18T12:51:47.538Z,6.10
2022-12-18T12:56:52.934Z,5.88
2022-12-18T13:02:04.570Z,6.03
2022-12-18T13:07:15.506Z,5.25
2022-12-18T13:12:17.335Z,6.25
2022-12-18T13:17:22.206Z,5.78
2022-12-18T13:22:30.877Z,6.70
2022-12-18T13:27:45.056Z,6.80
2022-12-18T13:32:46.873Z,7.03
2022-12-18T13:37:53.066Z,6.20
2022-12-18T13:42:55.658Z,6.53
2022-12-18T13:47:57.552Z,6.97
2022-12-18T13:53:00.276Z,6.88
2022-12-18T13:58:05.960Z,5.88
2022-12-18T14:03:21.785Z,6.20
2022-12-18T14:08:24.567Z,6.50
2022-12-18T14:13:31.393Z,6.87
2022-12-18T14:18:36.223Z,6.47
2022-12-18T14:23:40.319Z,7.40
2022-12-18T14:28:45.480Z,7.72
2022-12-18T14:33:47.535Z,6.82
2022-12-18T14:38:53.464Z,7.75
2022-12-18T14:43:55.542Z,6.78
2022-12-18T14:48:57.786Z,6.45
2022-12-18T14:54:03.629Z,5.93
2022-12-18T14:59:06.722Z,6.57
2022-12-18T15:09:24.391Z,6.43
2022-12-18T15:14:38.682Z,7.00
2022-12-18T15:19:41.539Z,6.28
2022-12-18T15:24:43.392Z,7.10
2022-12-18T15:29:59.969Z,6.47
2022-12-18T15:35:20.315Z,6.43
2022-12-18T15:40:23.378Z,6.30
2022-12-18T15:50:26.820Z,5.82
2022-12-18T16:00:32.474Z,5.20
2022-12-18T16:05:34.322Z,6.45
2022-12-18T16:10:36.287Z,5.80
2022-12-18T16:15:38.200Z,6.03
2022-12-18T16:20:40.250Z,5.80
2022-12-18T16:25:42.054Z,5.80
2022-12-18T16:30:43.916Z,5.10
2022-12-18T16:35:51.843Z,5.40
2022-12-18T16:40:53.626Z,5.75
2022-12-18T16:45:55.578Z,4.80
2022-12-18T16:51:01.250Z,5.20
2022-12-18T16:56:03.226Z,5.13
2022-12-18T17:01:10.468Z,4.88
2022-12-18T17:06:12.297Z,5.15
2022-12-18T17:11:14.372Z,4.97
2022-12-18T17:16:16.263Z,5.35
2022-12-18T17:21:18.119Z,5.20
2022-12-18T17:26:19.910Z,4.85
2022-12-18T17:31:22.352Z,4.97
2022-12-18T17:36:24.514Z,5.13
2022-12-18T17:41:27.154Z,4.93
2022-12-18T17:46:30.098Z,4.75
2022-12-18T17:51:31.994Z,5.43
2022-12-18T17:56:33.822Z,4.65
2022-12-18T18:01:42.437Z,4.60
2022-12-18T18:06:46.120Z,4.65
2022-12-18T18:11:47.946Z,4.10
2022-12-18T18:16:51.660Z,5.00
2022-12-18T18:21:53.494Z,4.93
2022-12-18T18:26:56.357Z,4.43
2022-12-18T18:31:58.593Z,4.65
2022-12-18T18:37:01.074Z,4.40
2022-12-18T18:42:02.931Z,4.73
2022-12-18T18:47:05.638Z,4.38
2022-12-18T18:52:11.506Z,4.60
2022-12-18T18:57:21.341Z,5.43
2022-12-18T19:02:24.703Z,4.18
2022-12-18T19:07:30.755Z,4.45
2022-12-18T19:12:33.999Z,5.13
2022-12-18T19:17:35.822Z,4.28
2022-12-18T19:22:38.400Z,4.35
2022-12-18T19:27:40.273Z,4.93
2022-12-18T19:32:42.108Z,5.25
2022-12-18T19:37:43.922Z,5.10
2022-12-18T19:42:45.944Z,5.45
2022-12-18T19:47:49.632Z,4.78
2022-12-18T19:52:51.651Z,4.93
2022-12-18T19:57:53.587Z,5.07
2022-12-18T20:03:01.461Z,4.85
2022-12-18T20:08:07.543Z,5.22
2022-12-18T20:13:09.425Z,4.93
2022-12-18T20:18:11.370Z,5.78
2022-12-18T20:23:13.796Z,5.78
2022-12-18T20:28:15.632Z,6.35
2022-12-18T20:33:17.442Z,6.32
2022-12-18T20:38:19.378Z,6.00
2022-12-18T20:43:22.375Z,6.82
2022-12-18T20:48:26.748Z,7.63
2022-12-18T20:53:29.038Z,7.15
2022-12-18T20:58:31.051Z,6.73
2022-12-18T21:03:32.948Z,7.10
2022-12-18T21:08:35.019Z,7.45
2022-12-18T21:13:36.845Z,7.40
2022-12-18T21:18:38.879Z,7.65
2022-12-18T21:23:40.827Z,7.45
2022-12-18T21:28:42.623Z,7.03
2022-12-18T21:33:44.560Z,8.40
2022-12-18T21:43:49.656Z,8.18
2022-12-18T21:48:51.466Z,8.52
2022-12-18T21:53:53.309Z,10.07
2022-12-18T21:58:57.060Z,7.65
2022-12-18T22:03:59.348Z,8.98
2022-12-18T22:09:01.210Z,8.60
2022-12-18T22:14:03.125Z,8.90
2022-12-18T22:19:05.050Z,9.30
2022-12-18T22:24:08.282Z,9.32
2022-12-18T22:34:11.774Z,10.77
2022-12-18T22:39:20.923Z,10.07
2022-12-18T22:44:23.124Z,10.90
2022-12-18T22:49:25.395Z,11.43
2022-12-18T22:54:27.283Z,12.30
2022-12-18T22:59:29.065Z,11.90
2022-12-18T23:04:36.203Z,11.40
2022-12-18T23:09:38.533Z,13.02
2022-12-18T23:14:40.374Z,13.07
2022-12-18T23:19:48.547Z,13.52
2022-12-18T23:24:50.981Z,12.85
2022-12-18T23:29:52.775Z,12.27
2022-12-18T23:34:56.670Z,15.00
2022-12-18T23:39:58.453Z,13.23
2022-12-18T23:45:00.237Z,14.70
2022-12-18T23:50:03.216Z,13.77
2022-12-18T23:55:05.292Z,14.90
